sensor_id;sensor_type;location;lat;lon;timestamp;pressure;altitude;pressure_sealevel;temperature;humidity
54556;BME280;57291;37.520;15.106;2022-08-21T00:00:46;100786.66;;;26.50;59.58
54556;BME280;57291;37.520;15.106;2022-08-21T00:03:14;100786.63;;;26.53;59.28
54556;BME280;57291;37.520;15.106;2022-08-21T00:05:45;100793.78;;;26.51;59.78
54556;BME280;57291;37.520;15.106;2022-08-21T00:08:13;100791.81;;;26.48;59.75
54556;BME280;57291;37.520;15.106;2022-08-21T00:10:41;100788.63;;;26.46;59.93
54556;BME280;57291;37.520;15.106;2022-08-21T00:13:10;100797.38;;;26.40;60.08
54556;BME280;57291;37.520;15.106;2022-08-21T00:15:39;100790.25;;;26.36;59.56
54556;BME280;57291;37.520;15.106;2022-08-21T00:18:11;100785.47;;;26.33;59.67
54556;BME280;57291;37.520;15.106;2022-08-21T00:20:39;100784.25;;;26.34;59.30
54556;BME280;57291;37.520;15.106;2022-08-21T00:23:06;100776.69;;;26.34;59.31
54556;BME280;57291;37.520;15.106;2022-08-21T00:25:34;100772.31;;;26.33;59.30
54556;BME280;57291;37.520;15.106;2022-08-21T00:28:02;100777.50;;;26.31;59.67
54556;BME280;57291;37.520;15.106;2022-08-21T00:30:30;100776.31;;;26.29;59.72
54556;BME280;57291;37.520;15.106;2022-08-21T00:32:57;100775.13;;;26.26;59.86
54556;BME280;57291;37.520;15.106;2022-08-21T00:35:28;100781.50;;;26.23;59.84
54556;BME280;57291;37.520;15.106;2022-08-21T00:37:56;100769.19;;;26.17;60.27
54556;BME280;57291;37.520;15.106;2022-08-21T00:40:28;100765.59;;;26.06;60.26
54556;BME280;57291;37.520;15.106;2022-08-21T00:42:56;100761.66;;;26.03;60.61
54556;BME280;57291;37.520;15.106;2022-08-21T00:45:24;100763.25;;;26.01;60.44
54556;BME280;57291;37.520;15.106;2022-08-21T00:47:52;100770.00;;;25.96;60.91
54556;BME280;57291;37.520;15.106;2022-08-21T00:50:23;100769.63;;;25.90;61.07
54556;BME280;57291;37.520;15.106;2022-08-21T00:52:52;100772.00;;;25.85;61.30
54556;BME280;57291;37.520;15.106;2022-08-21T00:55:21;100773.19;;;25.80;61.51
54556;BME280;57291;37.520;15.106;2022-08-21T00:57:52;100772.34;;;25.76;61.64
54556;BME280;57291;37.520;15.106;2022-08-21T01:00:29;100762.00;;;25.73;61.57
54556;BME280;57291;37.520;15.106;2022-08-21T01:02:58;100762.44;;;25.82;62.58
54556;BME280;57291;37.520;15.106;2022-08-21T01:05:26;100760.06;;;25.84;63.22
54556;BME280;57291;37.520;15.106;2022-08-21T01:07:54;100753.72;;;25.84;63.19
54556;BME280;57291;37.520;15.106;2022-08-21T01:10:24;100766.44;;;25.85;63.17
54556;BME280;57291;37.520;15.106;2022-08-21T01:12:53;100762.44;;;25.86;63.52
54556;BME280;57291;37.520;15.106;2022-08-21T01:15:26;100750.50;;;25.89;62.73
54556;BME280;57291;37.520;15.106;2022-08-21T01:17:56;100761.66;;;25.85;62.36
54556;BME280;57291;37.520;15.106;2022-08-21T01:20:24;100758.84;;;25.78;61.66
54556;BME280;57291;37.520;15.106;2022-08-21T01:23:01;100754.50;;;25.73;61.75
54556;BME280;57291;37.520;15.106;2022-08-21T01:25:31;100746.94;;;25.67;63.05
54556;BME280;57291;37.520;15.106;2022-08-21T01:28:02;100748.53;;;25.61;63.19
54556;BME280;57291;37.520;15.106;2022-08-21T01:30:33;100744.53;;;25.55;63.53
54556;BME280;57291;37.520;15.106;2022-08-21T01:33:01;100741.34;;;25.49;63.80
54556;BME280;57291;37.520;15.106;2022-08-21T01:35:29;100738.56;;;25.45;63.48
54556;BME280;57291;37.520;15.106;2022-08-21T01:37:56;100737.78;;;25.45;63.89
54556;BME280;57291;37.520;15.106;2022-08-21T01:40:24;100733.00;;;25.45;64.01
54556;BME280;57291;37.520;15.106;2022-08-21T01:42:51;100730.63;;;25.47;63.80
54556;BME280;57291;37.520;15.106;2022-08-21T01:45:20;100722.28;;;25.47;61.68
54556;BME280;57291;37.520;15.106;2022-08-21T01:47:47;100726.25;;;25.46;61.10
54556;BME280;57291;37.520;15.106;2022-08-21T01:50:17;100725.06;;;25.47;60.82
54556;BME280;57291;37.520;15.106;2022-08-21T01:52:44;100721.88;;;25.45;60.07
54556;BME280;57291;37.520;15.106;2022-08-21T01:55:13;100727.44;;;25.38;61.14
54556;BME280;57291;37.520;15.106;2022-08-21T01:57:41;100721.47;;;25.33;60.70
54556;BME280;57291;37.520;15.106;2022-08-21T02:00:11;100720.66;;;25.18;59.29
54556;BME280;57291;37.520;15.106;2022-08-21T02:02:41;100718.25;;;25.13;60.11
54556;BME280;57291;37.520;15.106;2022-08-21T02:05:12;100718.66;;;25.11;59.89
54556;BME280;57291;37.520;15.106;2022-08-21T02:07:49;100723.00;;;25.09;59.79
54556;BME280;57291;37.520;15.106;2022-08-21T02:10:20;100720.22;;;25.09;59.55
54556;BME280;57291;37.520;15.106;2022-08-21T02:12:49;100712.72;;;25.13;59.36
54556;BME280;57291;37.520;15.106;2022-08-21T02:15:16;100712.72;;;25.13;60.15
54556;BME280;57291;37.520;15.106;2022-08-21T02:17:48;100719.81;;;25.10;60.16
54556;BME280;57291;37.520;15.106;2022-08-21T02:20:28;100718.22;;;25.06;60.55
54556;BME280;57291;37.520;15.106;2022-08-21T02:22:56;100721.00;;;25.02;61.25
54556;BME280;57291;37.520;15.106;2022-08-21T02:25:25;100722.56;;;24.92;61.45
54556;BME280;57291;37.520;15.106;2022-08-21T02:27:54;100721.34;;;24.86;61.37
54556;BME280;57291;37.520;15.106;2022-08-21T02:30:30;100719.78;;;24.82;62.64
54556;BME280;57291;37.520;15.106;2022-08-21T02:32:58;100721.69;;;24.70;63.00
54556;BME280;57291;37.520;15.106;2022-08-21T02:35:27;100717.69;;;24.61;63.51
54556;BME280;57291;37.520;15.106;2022-08-21T02:37:57;100706.56;;;24.53;64.00
54556;BME280;57291;37.520;15.106;2022-08-21T02:40:27;100710.91;;;24.47;64.05
54556;BME280;57291;37.520;15.106;2022-08-21T02:42:56;100709.69;;;24.45;64.21
54556;BME280;57291;37.520;15.106;2022-08-21T02:45:23;100711.66;;;24.41;63.95
54556;BME280;57291;37.520;15.106;2022-08-21T02:47:54;100714.41;;;24.37;64.30
54556;BME280;57291;37.520;15.106;2022-08-21T02:50:26;100710.41;;;24.34;64.70
54556;BME280;57291;37.520;15.106;2022-08-21T02:52:54;100711.56;;;24.26;65.02
54556;BME280;57291;37.520;15.106;2022-08-21T02:55:24;100708.78;;;24.26;64.96
54556;BME280;57291;37.520;15.106;2022-08-21T02:57:54;100707.56;;;24.20;65.30
54556;BME280;57291;37.520;15.106;2022-08-21T03:00:23;100705.16;;;24.15;65.47
54556;BME280;57291;37.520;15.106;2022-08-21T03:02:51;100701.19;;;24.13;66.00
54556;BME280;57291;37.520;15.106;2022-08-21T03:05:19;100708.72;;;24.12;66.43
54556;BME280;57291;37.520;15.106;2022-08-21T03:07:48;100699.97;;;24.10;66.33
54556;BME280;57291;37.520;15.106;2022-08-21T03:10:16;100702.78;;;24.14;66.83
54556;BME280;57291;37.520;15.106;2022-08-21T03:12:43;100707.56;;;24.20;67.02
54556;BME280;57291;37.520;15.106;2022-08-21T03:15:16;100706.34;;;24.18;66.75
54556;BME280;57291;37.520;15.106;2022-08-21T03:17:44;100711.13;;;24.17;66.77
54556;BME280;57291;37.520;15.106;2022-08-21T03:20:14;100707.56;;;24.17;67.00
54556;BME280;57291;37.520;15.106;2022-08-21T03:22:42;100707.97;;;24.19;67.72
54556;BME280;57291;37.520;15.106;2022-08-21T03:25:20;100704.81;;;24.24;67.31
54556;BME280;57291;37.520;15.106;2022-08-21T03:28:10;100715.13;;;24.27;67.83
54556;BME280;57291;37.520;15.106;2022-08-21T03:30:44;100706.03;;;24.30;67.37
54556;BME280;57291;37.520;15.106;2022-08-21T03:33:12;100704.84;;;24.31;67.66
54556;BME280;57291;37.520;15.106;2022-08-21T03:35:43;100702.47;;;24.33;67.57
54556;BME280;57291;37.520;15.106;2022-08-21T03:38:11;100709.25;;;24.36;67.89
54556;BME280;57291;37.520;15.106;2022-08-21T03:40:41;100705.69;;;24.39;68.44
54556;BME280;57291;37.520;15.106;2022-08-21T03:43:09;100707.66;;;24.38;68.59
54556;BME280;57291;37.520;15.106;2022-08-21T03:45:38;100712.03;;;24.39;68.10
54556;BME280;57291;37.520;15.106;2022-08-21T03:48:07;100709.69;;;24.45;68.49
54556;BME280;57291;37.520;15.106;2022-08-21T03:50:38;100704.16;;;24.48;67.89
54556;BME280;57291;37.520;15.106;2022-08-21T03:53:08;100706.56;;;24.53;67.83
54556;BME280;57291;37.520;15.106;2022-08-21T03:55:48;100703.78;;;24.57;67.68
54556;BME280;57291;37.520;15.106;2022-08-21T03:58:18;100705.78;;;24.60;67.51
54556;BME280;57291;37.520;15.106;2022-08-21T04:00:47;100708.19;;;24.62;67.83
54556;BME280;57291;37.520;15.106;2022-08-21T04:03:16;100712.16;;;24.64;67.66
54556;BME280;57291;37.520;15.106;2022-08-21T04:05:44;100717.31;;;24.66;67.01
54556;BME280;57291;37.520;15.106;2022-08-21T04:08:14;100709.78;;;24.70;67.02
54556;BME280;57291;37.520;15.106;2022-08-21T04:10:43;100704.25;;;24.73;66.52
54556;BME280;57291;37.520;15.106;2022-08-21T04:13:10;100711.41;;;24.78;65.85
54556;BME280;57291;37.520;15.106;2022-08-21T04:15:38;100715.00;;;24.82;65.71
54556;BME280;57291;37.520;15.106;2022-08-21T04:18:05;100714.22;;;24.85;65.00
54556;BME280;57291;37.520;15.106;2022-08-21T04:20:34;100722.56;;;24.85;64.85
54556;BME280;57291;37.520;15.106;2022-08-21T04:23:02;100727.31;;;24.85;65.02
54556;BME280;57291;37.520;15.106;2022-08-21T04:25:30;100724.91;;;24.83;65.04
54556;BME280;57291;37.520;15.106;2022-08-21T04:27:57;100734.47;;;24.82;65.10
54556;BME280;57291;37.520;15.106;2022-08-21T04:30:25;100730.09;;;24.81;65.30
54556;BME280;57291;37.520;15.106;2022-08-21T04:32:56;100726.13;;;24.82;65.18
54556;BME280;57291;37.520;15.106;2022-08-21T04:35:26;100730.91;;;24.85;64.93
54556;BME280;57291;37.520;15.106;2022-08-21T04:37:54;100723.34;;;24.89;64.82
54556;BME280;57291;37.520;15.106;2022-08-21T04:40:22;100741.63;;;24.97;64.17
54556;BME280;57291;37.520;15.106;2022-08-21T04:42:55;100730.56;;;25.04;64.20
54556;BME280;57291;37.520;15.106;2022-08-21T04:45:26;100736.19;;;25.40;62.87
54556;BME280;57291;37.520;15.106;2022-08-21T04:47:56;100733.03;;;25.67;62.10
54556;BME280;57291;37.520;15.106;2022-08-21T04:50:30;100723.47;;;25.71;61.48
54556;BME280;57291;37.520;15.106;2022-08-21T04:53:08;100728.66;;;25.87;60.84
54556;BME280;57291;37.520;15.106;2022-08-21T04:55:36;100726.13;;;26.43;59.67
54556;BME280;57291;37.520;15.106;2022-08-21T04:58:06;100725.31;;;27.79;55.74
54556;BME280;57291;37.520;15.106;2022-08-21T05:00:35;100724.88;;;29.17;52.61
54556;BME280;57291;37.520;15.106;2022-08-21T05:03:04;100730.03;;;30.36;48.61
54556;BME280;57291;37.520;15.106;2022-08-21T05:05:34;100727.53;;;30.42;47.69
54556;BME280;57291;37.520;15.106;2022-08-21T05:08:02;100726.41;;;30.16;48.06
54556;BME280;57291;37.520;15.106;2022-08-21T05:10:37;100731.09;;;30.23;48.95
54556;BME280;57291;37.520;15.106;2022-08-21T05:13:12;100726.41;;;31.28;45.22
54556;BME280;57291;37.520;15.106;2022-08-21T05:15:40;100727.66;;;31.76;44.22
54556;BME280;57291;37.520;15.106;2022-08-21T05:18:08;100738.50;;;32.65;42.43
54556;BME280;57291;37.520;15.106;2022-08-21T05:20:35;100723.44;;;33.23;41.57
54556;BME280;57291;37.520;15.106;2022-08-21T05:23:11;100727.59;;;33.57;40.45
54556;BME280;57291;37.520;15.106;2022-08-21T05:25:38;100735.59;;;34.50;39.61
54556;BME280;57291;37.520;15.106;2022-08-21T05:28:07;100736.63;;;34.96;39.96
54556;BME280;57291;37.520;15.106;2022-08-21T05:30:35;100721.59;;;33.68;41.36
54556;BME280;57291;37.520;15.106;2022-08-21T05:33:05;100738.59;;;34.12;41.45
54556;BME280;57291;37.520;15.106;2022-08-21T05:35:33;100732.16;;;34.11;40.01
54556;BME280;57291;37.520;15.106;2022-08-21T05:38:00;100736.56;;;35.68;37.66
54556;BME280;57291;37.520;15.106;2022-08-21T05:40:28;100740.50;;;35.98;37.11
54556;BME280;57291;37.520;15.106;2022-08-21T05:42:55;100746.81;;;36.11;36.62
54556;BME280;57291;37.520;15.106;2022-08-21T05:45:26;100745.38;;;36.44;35.87
54556;BME280;57291;37.520;15.106;2022-08-21T05:48:23;100737.03;;;36.58;35.05
54556;BME280;57291;37.520;15.106;2022-08-21T05:50:51;100735.78;;;35.86;36.59
54556;BME280;57291;37.520;15.106;2022-08-21T05:53:20;100731.25;;;35.20;37.80
54556;BME280;57291;37.520;15.106;2022-08-21T05:55:49;100736.72;;;35.55;36.71
54556;BME280;57291;37.520;15.106;2022-08-21T05:58:19;100729.47;;;36.65;34.49
54556;BME280;57291;37.520;15.106;2022-08-21T06:00:48;100730.47;;;36.85;34.63
54556;BME280;57291;37.520;15.106;2022-08-21T06:03:37;100729.34;;;35.76;36.21
54556;BME280;57291;37.520;15.106;2022-08-21T06:06:05;100727.41;;;36.74;35.41
54556;BME280;57291;37.520;15.106;2022-08-21T06:08:32;100725.09;;;36.97;33.95
54556;BME280;57291;37.520;15.106;2022-08-21T06:11:02;100713.53;;;37.91;32.36
54556;BME280;57291;37.520;15.106;2022-08-21T06:13:30;100715.06;;;38.16;31.57
54556;BME280;57291;37.520;15.106;2022-08-21T06:16:14;100724.88;;;37.52;32.63
54556;BME280;57291;37.520;15.106;2022-08-21T06:18:43;100727.47;;;38.04;32.03
54556;BME280;57291;37.520;15.106;2022-08-21T06:21:12;100729.81;;;37.09;33.21
54556;BME280;57291;37.520;15.106;2022-08-21T06:23:40;100723.63;;;36.68;33.79
54556;BME280;57291;37.520;15.106;2022-08-21T06:26:10;100727.75;;;36.67;34.22
54556;BME280;57291;37.520;15.106;2022-08-21T06:28:38;100728.13;;;37.26;32.63
54556;BME280;57291;37.520;15.106;2022-08-21T06:31:21;100729.28;;;36.68;33.90
54556;BME280;57291;37.520;15.106;2022-08-21T06:33:49;100723.88;;;35.91;34.92
54556;BME280;57291;37.520;15.106;2022-08-21T06:36:17;100727.28;;;36.59;33.88
54556;BME280;57291;37.520;15.106;2022-08-21T06:38:45;100729.06;;;37.57;32.40
54556;BME280;57291;37.520;15.106;2022-08-21T06:41:19;100727.97;;;37.78;31.58
54556;BME280;57291;37.520;15.106;2022-08-21T06:43:53;100721.84;;;37.55;32.21
54556;BME280;57291;37.520;15.106;2022-08-21T06:46:20;100734.91;;;37.29;32.54
54556;BME280;57291;37.520;15.106;2022-08-21T06:48:48;100740.59;;;37.20;32.65
54556;BME280;57291;37.520;15.106;2022-08-21T06:51:15;100739.47;;;36.84;33.16
54556;BME280;57291;37.520;15.106;2022-08-21T06:53:43;100736.25;;;36.58;33.77
54556;BME280;57291;37.520;15.106;2022-08-21T06:56:10;100739.56;;;36.56;33.15
54556;BME280;57291;37.520;15.106;2022-08-21T06:58:37;100739.84;;;36.58;33.65
54556;BME280;57291;37.520;15.106;2022-08-21T07:01:05;100742.41;;;36.29;33.92
54556;BME280;57291;37.520;15.106;2022-08-21T07:03:35;100739.59;;;36.10;34.46
54556;BME280;57291;37.520;15.106;2022-08-21T07:06:04;100735.34;;;36.15;34.10
54556;BME280;57291;37.520;15.106;2022-08-21T07:08:32;100750.72;;;35.77;34.84
54556;BME280;57291;37.520;15.106;2022-08-21T07:11:02;100743.47;;;35.67;35.45
54556;BME280;57291;37.520;15.106;2022-08-21T07:13:30;100744.56;;;35.60;35.77
54556;BME280;57291;37.520;15.106;2022-08-21T07:15:57;100746.53;;;35.32;36.44
54556;BME280;57291;37.520;15.106;2022-08-21T07:18:30;100738.44;;;35.53;35.98
54556;BME280;57291;37.520;15.106;2022-08-21T07:20:58;100748.13;;;35.52;36.09
54556;BME280;57291;37.520;15.106;2022-08-21T07:23:31;100742.22;;;34.87;37.19
54556;BME280;57291;37.520;15.106;2022-08-21T07:25:59;100743.31;;;35.12;36.92
54556;BME280;57291;37.520;15.106;2022-08-21T07:28:28;100741.50;;;34.96;36.74
54556;BME280;57291;37.520;15.106;2022-08-21T07:30:57;100738.44;;;35.12;36.29
54556;BME280;57291;37.520;15.106;2022-08-21T07:33:27;100736.31;;;35.26;36.01
54556;BME280;57291;37.520;15.106;2022-08-21T07:35:55;100746.75;;;34.85;37.15
54556;BME280;57291;37.520;15.106;2022-08-21T07:38:24;100738.22;;;34.66;37.69
54556;BME280;57291;37.520;15.106;2022-08-21T07:40:53;100746.16;;;34.37;38.11
54556;BME280;57291;37.520;15.106;2022-08-21T07:43:21;100743.91;;;34.31;38.69
54556;BME280;57291;37.520;15.106;2022-08-21T07:45:48;100730.00;;;34.15;39.23
54556;BME280;57291;37.520;15.106;2022-08-21T07:48:21;100737.88;;;33.85;39.06
54556;BME280;57291;37.520;15.106;2022-08-21T07:50:49;100740.41;;;34.05;39.05
54556;BME280;57291;37.520;15.106;2022-08-21T07:53:17;100740.22;;;34.00;38.60
54556;BME280;57291;37.520;15.106;2022-08-21T07:55:45;100735.97;;;34.17;38.85
54556;BME280;57291;37.520;15.106;2022-08-21T07:58:12;100742.06;;;34.38;37.86
54556;BME280;57291;37.520;15.106;2022-08-21T08:00:40;100743.81;;;34.57;37.72
54556;BME280;57291;37.520;15.106;2022-08-21T08:03:07;100747.31;;;34.48;38.58
54556;BME280;57291;37.520;15.106;2022-08-21T08:05:36;100745.34;;;34.14;38.70
54556;BME280;57291;37.520;15.106;2022-08-21T08:08:06;100740.53;;;33.67;40.09
54556;BME280;57291;37.520;15.106;2022-08-21T08:10:35;100736.28;;;33.50;40.53
54556;BME280;57291;37.520;15.106;2022-08-21T08:13:02;100735.50;;;33.49;40.50
54556;BME280;57291;37.520;15.106;2022-08-21T08:15:30;100731.44;;;33.50;40.62
54556;BME280;57291;37.520;15.106;2022-08-21T08:18:03;100736.19;;;33.28;40.70
54556;BME280;57291;37.520;15.106;2022-08-21T08:20:30;100738.66;;;33.13;41.38
54556;BME280;57291;37.520;15.106;2022-08-21T08:22:58;100735.41;;;33.27;41.23
54556;BME280;57291;37.520;15.106;2022-08-21T08:25:27;100730.78;;;33.08;41.09
54556;BME280;57291;37.520;15.106;2022-08-21T08:28:04;100733.69;;;33.30;40.46
54556;BME280;57291;37.520;15.106;2022-08-21T08:30:45;100730.09;;;33.29;40.50
54556;BME280;57291;37.520;15.106;2022-08-21T08:33:13;100730.09;;;33.29;40.13
54556;BME280;57291;37.520;15.106;2022-08-21T08:35:42;100724.91;;;33.28;40.45
54556;BME280;57291;37.520;15.106;2022-08-21T08:38:11;100733.13;;;32.97;41.33
54556;BME280;57291;37.520;15.106;2022-08-21T08:40:43;100730.53;;;32.35;41.86
54556;BME280;57291;37.520;15.106;2022-08-21T08:43:13;100729.81;;;32.60;40.59
54556;BME280;57291;37.520;15.106;2022-08-21T08:45:45;100730.91;;;32.50;39.67
54556;BME280;57291;37.520;15.106;2022-08-21T08:48:14;100727.34;;;32.33;40.20
54556;BME280;57291;37.520;15.106;2022-08-21T08:50:49;100717.06;;;32.13;41.45
54556;BME280;57291;37.520;15.106;2022-08-21T08:53:25;100717.72;;;31.88;41.72
54556;BME280;57291;37.520;15.106;2022-08-21T08:55:55;100714.91;;;31.72;42.29
54556;BME280;57291;37.520;15.106;2022-08-21T08:58:29;100710.47;;;31.58;42.06
54556;BME280;57291;37.520;15.106;2022-08-21T09:00:58;100712.75;;;31.30;42.79
54556;BME280;57291;37.520;15.106;2022-08-21T09:03:27;100709.38;;;30.87;43.95
54556;BME280;57291;37.520;15.106;2022-08-21T09:06:03;100698.41;;;30.36;45.47
54556;BME280;57291;37.520;15.106;2022-08-21T09:11:14;100700.25;;;30.03;44.62
54556;BME280;57291;37.520;15.106;2022-08-21T09:16:55;100692.31;;;29.98;45.96
54556;BME280;57291;37.520;15.106;2022-08-21T09:22:17;100699.53;;;29.99;45.72
54556;BME280;57291;37.520;15.106;2022-08-21T09:27:23;100696.50;;;29.89;45.59
54556;BME280;57291;37.520;15.106;2022-08-21T09:29:53;100690.44;;;29.91;46.48
54556;BME280;57291;37.520;15.106;2022-08-21T09:32:25;100689.38;;;29.85;46.79
54556;BME280;57291;37.520;15.106;2022-08-21T09:35:14;100688.09;;;29.89;46.05
54556;BME280;57291;37.520;15.106;2022-08-21T09:37:53;100688.00;;;29.93;46.30
54556;BME280;57291;37.520;15.106;2022-08-21T09:40:38;100682.41;;;30.13;45.85
54556;BME280;57291;37.520;15.106;2022-08-21T09:43:17;100687.94;;;30.17;46.02
54556;BME280;57291;37.520;15.106;2022-08-21T09:45:47;100678.59;;;30.03;44.23
54556;BME280;57291;37.520;15.106;2022-08-21T09:48:25;100671.59;;;30.15;45.44
54556;BME280;57291;37.520;15.106;2022-08-21T09:51:07;100668.84;;;30.11;45.85
54556;BME280;57291;37.520;15.106;2022-08-21T09:53:39;100679.78;;;30.26;45.08
54556;BME280;57291;37.520;15.106;2022-08-21T09:56:28;100682.03;;;29.91;44.75
54556;BME280;57291;37.520;15.106;2022-08-21T09:59:18;100669.84;;;30.01;45.71
54556;BME280;57291;37.520;15.106;2022-08-21T10:01:49;100672.00;;;29.94;46.04
54556;BME280;57291;37.520;15.106;2022-08-21T10:04:23;100664.97;;;30.05;46.37
54556;BME280;57291;37.520;15.106;2022-08-21T10:06:50;100657.91;;;29.97;46.08
54556;BME280;57291;37.520;15.106;2022-08-21T10:09:23;100655.69;;;29.88;45.82
54556;BME280;57291;37.520;15.106;2022-08-21T10:12:25;100662.44;;;29.91;46.99
54556;BME280;57291;37.520;15.106;2022-08-21T10:18:04;100656.44;;;30.32;46.08
54556;BME280;57291;37.520;15.106;2022-08-21T10:20:44;100655.00;;;30.24;45.76
54556;BME280;57291;37.520;15.106;2022-08-21T10:26:43;100650.13;;;30.28;46.63
54556;BME280;57291;37.520;15.106;2022-08-21T10:29:29;100639.09;;;30.18;44.21
54556;BME280;57291;37.520;15.106;2022-08-21T10:37:52;100632.19;;;30.42;44.92
54556;BME280;57291;37.520;15.106;2022-08-21T10:43:49;100629.09;;;30.36;46.33
54556;BME280;57291;37.520;15.106;2022-08-21T10:56:51;100625.88;;;29.98;49.60
54556;BME280;57291;37.520;15.106;2022-08-21T10:59:32;100623.00;;;29.82;50.55
54556;BME280;57291;37.520;15.106;2022-08-21T11:04:50;100623.72;;;29.66;53.16
54556;BME280;57291;37.520;15.106;2022-08-21T11:10:23;100607.47;;;30.17;52.93
54556;BME280;57291;37.520;15.106;2022-08-21T11:12:57;100606.75;;;30.33;53.43
54556;BME280;57291;37.520;15.106;2022-08-21T11:15:33;100602.50;;;30.45;54.08
54556;BME280;57291;37.520;15.106;2022-08-21T11:18:40;100604.19;;;30.02;55.21
54556;BME280;57291;37.520;15.106;2022-08-21T11:26:46;100601.16;;;30.33;55.94
54556;BME280;57291;37.520;15.106;2022-08-21T11:31:56;100598.94;;;30.60;54.80
54556;BME280;57291;37.520;15.106;2022-08-21T11:34:45;100594.69;;;29.96;56.51
54556;BME280;57291;37.520;15.106;2022-08-21T11:40:12;100593.72;;;30.43;55.28
54556;BME280;57291;37.520;15.106;2022-08-21T11:43:08;100594.72;;;30.69;53.85
54556;BME280;57291;37.520;15.106;2022-08-21T11:45:55;100584.22;;;30.73;53.02
54556;BME280;57291;37.520;15.106;2022-08-21T11:50:54;100589.78;;;30.40;53.96
54556;BME280;57291;37.520;15.106;2022-08-21T11:53:31;100577.41;;;30.21;55.34
54556;BME280;57291;37.520;15.106;2022-08-21T11:56:31;100570.13;;;30.24;53.10
54556;BME280;57291;37.520;15.106;2022-08-21T11:59:28;100580.19;;;30.57;53.12
54556;BME280;57291;37.520;15.106;2022-08-21T12:01:52;100563.69;;;30.76;53.51
54556;BME280;57291;37.520;15.106;2022-08-21T12:04:34;100562.56;;;30.73;52.61
54556;BME280;57291;37.520;15.106;2022-08-21T12:07:13;100573.38;;;30.91;52.29
54556;BME280;57291;37.520;15.106;2022-08-21T12:09:53;100574.25;;;30.88;53.31
54556;BME280;57291;37.520;15.106;2022-08-21T12:12:25;100567.81;;;30.55;55.61
54556;BME280;57291;37.520;15.106;2022-08-21T12:20:42;100550.94;;;30.22;55.92
54556;BME280;57291;37.520;15.106;2022-08-21T12:23:29;100557.75;;;30.74;54.40
54556;BME280;57291;37.520;15.106;2022-08-21T12:26:23;100556.59;;;30.38;56.84
54556;BME280;57291;37.520;15.106;2022-08-21T12:29:07;100551.66;;;30.06;55.41
54556;BME280;57291;37.520;15.106;2022-08-21T12:31:52;100547.56;;;30.11;57.14
54556;BME280;57291;37.520;15.106;2022-08-21T12:34:23;100550.69;;;29.77;56.09
54556;BME280;57291;37.520;15.106;2022-08-21T12:37:02;100543.91;;;29.74;58.07
54556;BME280;57291;37.520;15.106;2022-08-21T12:39:32;100542.53;;;30.02;57.74
54556;BME280;57291;37.520;15.106;2022-08-21T12:42:07;100541.09;;;29.94;56.56
54556;BME280;57291;37.520;15.106;2022-08-21T12:44:53;100532.56;;;29.61;58.19
54556;BME280;57291;37.520;15.106;2022-08-21T12:47:36;100534.88;;;29.66;57.96
54556;BME280;57291;37.520;15.106;2022-08-21T12:50:44;100526.16;;;29.41;59.91
54556;BME280;57291;37.520;15.106;2022-08-21T12:55:51;100526.19;;;29.81;60.05
54556;BME280;57291;37.520;15.106;2022-08-21T12:58:24;100521.59;;;29.71;58.83
54556;BME280;57291;37.520;15.106;2022-08-21T13:01:05;100523.59;;;29.90;59.28
54556;BME280;57291;37.520;15.106;2022-08-21T13:03:35;100516.53;;;30.22;58.41
54556;BME280;57291;37.520;15.106;2022-08-21T13:06:05;100513.91;;;30.31;58.34
54556;BME280;57291;37.520;15.106;2022-08-21T13:08:35;100521.03;;;30.15;57.80
54556;BME280;57291;37.520;15.106;2022-08-21T13:11:10;100519.78;;;29.80;57.90
54556;BME280;57291;37.520;15.106;2022-08-21T13:13:41;100507.91;;;30.12;57.38
54556;BME280;57291;37.520;15.106;2022-08-21T13:16:22;100511.97;;;29.91;58.23
54556;BME280;57291;37.520;15.106;2022-08-21T13:18:55;100510.56;;;30.20;56.86
54556;BME280;57291;37.520;15.106;2022-08-21T13:21:49;100513.56;;;30.61;55.25
54556;BME280;57291;37.520;15.106;2022-08-21T13:24:24;100512.50;;;31.04;56.08
54556;BME280;57291;37.520;15.106;2022-08-21T13:27:21;100499.84;;;30.83;55.57
54556;BME280;57291;37.520;15.106;2022-08-21T13:30:00;100507.59;;;30.59;56.40
54556;BME280;57291;37.520;15.106;2022-08-21T13:32:30;100501.13;;;30.63;55.48
54556;BME280;57291;37.520;15.106;2022-08-21T13:35:08;100508.06;;;30.58;56.03
54556;BME280;57291;37.520;15.106;2022-08-21T13:37:39;100510.22;;;30.50;55.81
54556;BME280;57291;37.520;15.106;2022-08-21T13:40:10;100510.06;;;30.57;54.87
54556;BME280;57291;37.520;15.106;2022-08-21T13:42:41;100507.38;;;30.54;53.42
54556;BME280;57291;37.520;15.106;2022-08-21T13:45:29;100502.97;;;30.53;52.83
54556;BME280;57291;37.520;15.106;2022-08-21T13:48:00;100515.22;;;30.59;52.32
54556;BME280;57291;37.520;15.106;2022-08-21T13:50:34;100503.75;;;30.53;53.52
54556;BME280;57291;37.520;15.106;2022-08-21T13:53:05;100501.47;;;30.32;52.90
54556;BME280;57291;37.520;15.106;2022-08-21T13:55:40;100500.88;;;30.04;54.12
54556;BME280;57291;37.520;15.106;2022-08-21T13:58:09;100490.84;;;29.87;55.92
54556;BME280;57291;37.520;15.106;2022-08-21T14:00:49;100504.19;;;29.99;56.56
54556;BME280;57291;37.520;15.106;2022-08-21T14:03:41;100500.69;;;29.95;55.28
54556;BME280;57291;37.520;15.106;2022-08-21T14:06:18;100488.56;;;29.82;52.85
54556;BME280;57291;37.520;15.106;2022-08-21T14:08:57;100494.16;;;29.82;54.06
54556;BME280;57291;37.520;15.106;2022-08-21T14:11:32;100487.84;;;29.78;56.95